WetterOnline ( http://www.wetteronline.de )

Wetter aktuell Frankfurt am Main

Aktuelles Wetter: Offenbach (119m)

6-stündlich | Neueste Meldungen
Ortszeit Temperatur Wetter
Sa, 17.02. 19:00 2.0° C bedeckt
Sa, 17.02. 13:00 2.6° C bedeckt
Sa, 17.02. 7:00 -0.2° C bedeckt
Sa, 17.02. 1:00 -2.2° C wolkig
Fr, 16.02. 19:00 1.6° C wolkenlos
Fr, 16.02. 13:00 3.9° C bewölkt
Fr, 16.02. 7:00 0.7° C Nebel
Fr, 16.02. 1:00 2.6° C leichter Regen
Ortszeit Temperatur Wetter
Sa, 17.02. 20:00 1.3° C bedeckt
Sa, 17.02. 19:50 1.3° C bedeckt
Sa, 17.02. 19:40 1.5° C bedeckt
Sa, 17.02. 19:30 1.5° C bedeckt
Sa, 17.02. 19:20 1.5° C bedeckt
Sa, 17.02. 19:10 1.8° C bedeckt
Sa, 17.02. 19:00 2.0° C bedeckt
Sa, 17.02. 18:30 2.2° C bedeckt
Sa, 17.02. 18:00 2.4° C bedeckt
Sa, 17.02. 17:30 2.7° C bedeckt
Sa, 17.02. 17:00 2.8° C bewölkt
Ortszeit Relative Feuchte Sichtweite
Sa, 17.02. 19:00 78% 10 km
Sa, 17.02. 13:00 79% 12 km
Sa, 17.02. 7:00 95% 5.0 km
Sa, 17.02. 1:00 99% 1.6 km
Fr, 16.02. 19:00 96% 2.3 km
Fr, 16.02. 13:00 91% 6 km
Fr, 16.02. 7:00 100% 0.7 km
Fr, 16.02. 1:00 98% 2.1 km
Ortszeit Relative Feuchte Sichtweite
Sa, 17.02. 20:00 82% 9 km
Sa, 17.02. 19:50 82% -
Sa, 17.02. 19:40 80% -
Sa, 17.02. 19:30 81% 10 km
Sa, 17.02. 19:20 81% -
Sa, 17.02. 19:10 79% -
Sa, 17.02. 19:00 78% 10 km
Sa, 17.02. 18:30 78% 10 km
Sa, 17.02. 18:00 78% 12 km
Sa, 17.02. 17:30 77% 12 km
Sa, 17.02. 17:00 77% 13 km
Ortszeit Niederschlagsmenge Niederschlagsart
Sa, 17.02. 19:00 0.0 l/m2 in 12 Std. -
Sa, 17.02. 13:00 0.0 l/m2 in 6 Std. -
Sa, 17.02. 7:00 0.0 l/m2 in 12 Std. -
Sa, 17.02. 1:00 0.0 l/m2 in 6 Std. -
Fr, 16.02. 19:00 0.0 l/m2 in 12 Std. -
Fr, 16.02. 13:00 0.0 l/m2 in 6 Std. -
Fr, 16.02. 7:00 0.3 l/m2 in 12 Std. Regen
Fr, 16.02. 1:00 0.3 l/m2 in 6 Std. Regen
Ortszeit Niederschlagsmenge Niederschlagsart
Sa, 17.02. 20:00 0.0 l/m2 in 1 Std. -
Sa, 17.02. 19:50 keine Meldung -
Sa, 17.02. 19:40 keine Meldung -
Sa, 17.02. 19:30 0.0 l/m2 in 1 Std. -
Sa, 17.02. 19:20 keine Meldung -
Sa, 17.02. 19:10 keine Meldung -
Sa, 17.02. 19:00 0.0 l/m2 in 1 Std. -
Sa, 17.02. 18:30 0.0 l/m2 in 1 Std. -
Sa, 17.02. 18:00 0.0 l/m2 in 1 Std. -
Sa, 17.02. 17:30 0.0 l/m2 in 1 Std. -
Sa, 17.02. 17:00 0.0 l/m2 in 1 Std. -
Ortszeit Stärke Spitze Richtung
km/h Bft. km/h Grad Sektor
Sa, 17.02. 19:00 7 2 22 360° N
Sa, 17.02. 13:00 6 1 17 360° N
Sa, 17.02. 7:00 7 2 13 40° NO
Sa, 17.02. 1:00 0 0 11 - -
Fr, 16.02. 19:00 4 1 14 90° O
Fr, 16.02. 13:00 4 1 11 250° W
Fr, 16.02. 7:00 4 1 14 180° S
Fr, 16.02. 1:00 7 2 14 210° SW
Ortszeit Stärke Spitze Richtung
km/h Bft. km/h Grad Sektor
Sa, 17.02. 20:00 7 2 14 10° N
Sa, 17.02. 19:50 7 2 - 10° N
Sa, 17.02. 19:40 7 2 - 20° N
Sa, 17.02. 19:30 6 1 13 360° N
Sa, 17.02. 19:20 6 1 - 360° N
Sa, 17.02. 19:10 7 2 - 350° N
Sa, 17.02. 19:00 7 2 14 360° N
Sa, 17.02. 18:30 7 2 14 10° N
Sa, 17.02. 18:00 9 2 19 360° N
Sa, 17.02. 17:30 11 2 18 360° N
Sa, 17.02. 17:00 9 2 20 360° N
Ortszeit Untergrenze Bedeckung Gattung
total tief tief mittel hoch
Sa, 17.02. 19:00 3000 m 8/8 8/8 - - -
Sa, 17.02. 13:00 2700 m 8/8 8/8 - - -
Sa, 17.02. 7:00 3600 m 8/8 8/8 - - -
Sa, 17.02. 1:00 7500 m 8/8 0/8 - - -
Fr, 16.02. 19:00 - 0/8 0/8 - - -
Fr, 16.02. 13:00 90 m 7/8 7/8 - - -
Fr, 16.02. 7:00 <30 m 8/8 8/8 - - -
Fr, 16.02. 1:00 30 m 8/8 8/8 - - -
Ortszeit Bedeckungsgrad in Achtel und Wolkenuntergrenze
Sa, 17.02. 20:00 8(3000m) 8(4500m) 8(5700m)
Sa, 17.02. 19:50 8(3000m) 8(4500m) 8(5700m)
Sa, 17.02. 19:40 8(3000m) 8(4800m) 8(5700m)
Sa, 17.02. 19:30 8(3300m) 8(3900m) 8(5100m)
Sa, 17.02. 19:20 8(3300m) 8(3900m) 8(5100m)
Sa, 17.02. 19:10 8(3000m) 8(3900m) 8(5400m)
Sa, 17.02. 19:00 8(3000m) 8(3900m) 8(6600m)
Sa, 17.02. 18:30 8(3000m) 8(3900m)
Sa, 17.02. 18:00 8(3000m) 8(3600m) 8(4200m)
Sa, 17.02. 17:30 8(2700m) 8(4200m) 8(5100m)
Sa, 17.02. 17:00 7(3000m) 7(4500m) 7(5100m)
Ortszeit Luftdruck NN (hPa) Tendenz (hPa in 3 Std.)
Sa, 17.02. 19:00 1024 + 1,6
Sa, 17.02. 13:00 1022 - 0,6
Sa, 17.02. 7:00 1024 - 2,2
Sa, 17.02. 1:00 1028 - 0,4
Fr, 16.02. 19:00 1028 + 0,5
Fr, 16.02. 13:00 1028 + 1,2
Fr, 16.02. 7:00 1025 + 2,4
Fr, 16.02. 1:00 1020 + 1,1
Ortszeit Luftdruck NN (hPa) Tendenz (hPa in 3 Std.)
Sa, 17.02. 20:00 1024 + 2,0
Sa, 17.02. 19:50 1024 keine Meldung
Sa, 17.02. 19:40 1024 keine Meldung
Sa, 17.02. 19:30 1024 + 1,7
Sa, 17.02. 19:20 1024 keine Meldung
Sa, 17.02. 19:10 1024 keine Meldung
Sa, 17.02. 19:00 1024 + 1,6
Sa, 17.02. 18:30 1023 + 1,6
Sa, 17.02. 18:00 1023 + 1,3
Sa, 17.02. 17:30 1023 + 1,1
Sa, 17.02. 17:00 1022 + 0,7
Ortszeit Schneehöhe (cm)
Sa, 17.02. 19:00 0
Sa, 17.02. 13:00 0
Sa, 17.02. 7:00 0
Sa, 17.02. 1:00 0
Fr, 16.02. 19:00 0
Fr, 16.02. 13:00 0
Fr, 16.02. 7:00 0
Fr, 16.02. 1:00 0
Ortszeit Schneehöhe (cm)
Sa, 17.02. 20:00 0
Sa, 17.02. 19:50 0
Sa, 17.02. 19:40 0
Sa, 17.02. 19:30 0
Sa, 17.02. 19:20 0
Sa, 17.02. 19:10 0
Sa, 17.02. 19:00 0
Sa, 17.02. 18:30 0
Sa, 17.02. 18:00 0
Sa, 17.02. 17:30 0
Sa, 17.02. 17:00 0
Link zu dieser Seite / Seite empfehlen

Das Wetter in ...